createdAt,value
2019-04-06T00:00:33.236Z,0
2019-04-06T00:01:45.000Z,0
2019-04-06T00:02:57.063Z,0
2019-04-06T00:04:09.000Z,0
2019-04-06T00:05:22.032Z,0
2019-04-06T00:06:34.361Z,0
2019-04-06T00:08:58.628Z,0
2019-04-06T00:10:10.829Z,0
2019-04-06T00:11:23.000Z,0
2019-04-06T00:12:35.226Z,0
2019-04-06T00:13:47.000Z,0
2019-04-06T00:14:59.061Z,0
2019-04-06T00:16:11.000Z,0
2019-04-06T00:17:24.021Z,0
2019-04-06T00:18:36.000Z,0
2019-04-06T00:21:00.000Z,0
2019-04-06T00:22:12.819Z,0
2019-04-06T00:23:24.000Z,0
2019-04-06T00:24:37.212Z,0
2019-04-06T00:25:49.000Z,0
2019-04-06T00:27:01.611Z,0
2019-04-06T00:28:13.806Z,0
2019-04-06T00:29:26.002Z,0
2019-04-06T00:30:38.000Z,0
2019-04-06T00:33:02.000Z,0
2019-04-06T00:34:14.866Z,0
2019-04-06T00:35:26.000Z,0
2019-04-06T00:36:39.198Z,0
2019-04-06T00:37:51.000Z,0
2019-04-06T00:39:03.589Z,0
2019-04-06T00:40:15.000Z,0
2019-04-06T00:41:27.986Z,0
2019-04-06T00:42:40.000Z,0
2019-04-06T00:45:04.000Z,0
2019-04-06T00:46:16.783Z,0
2019-04-06T00:47:28.000Z,0
2019-04-06T00:48:41.183Z,0
2019-04-06T00:49:53.000Z,0
2019-04-06T00:51:05.570Z,0
2019-04-06T00:52:17.000Z,0
2019-04-06T00:53:29.972Z,0
2019-04-06T00:54:42.000Z,0
2019-04-06T00:57:06.000Z,0
2019-04-06T00:58:18.764Z,0
2019-04-06T00:59:30.000Z,0
2019-04-06T01:00:43.047Z,0
2019-04-06T01:01:55.000Z,0
2019-04-06T01:03:07.557Z,0
2019-04-06T01:04:19.000Z,0
2019-04-06T01:05:31.954Z,0
2019-04-06T01:06:44.155Z,0
2019-04-06T01:09:08.000Z,0
2019-04-06T01:10:20.752Z,0
2019-04-06T01:11:32.000Z,0
2019-04-06T01:12:45.145Z,0
2019-04-06T01:13:57.341Z,0
2019-04-06T01:15:09.546Z,0
2019-04-06T01:16:21.000Z,0
2019-04-06T01:17:34.076Z,0
2019-04-06T01:18:46.000Z,0
2019-04-06T01:21:10.000Z,0
2019-04-06T01:22:22.734Z,0
2019-04-06T01:23:34.000Z,0
2019-04-06T01:24:47.133Z,0
2019-04-06T01:25:59.336Z,0
2019-04-06T01:27:11.536Z,0
2019-04-06T01:28:23.000Z,0
2019-04-06T01:29:35.928Z,0
2019-04-06T01:30:48.129Z,0
2019-04-06T01:33:12.000Z,0
2019-04-06T01:34:24.071Z,0
2019-04-06T01:35:36.000Z,0
2019-04-06T01:36:49.123Z,0
2019-04-06T01:38:01.000Z,0
2019-04-06T01:39:13.509Z,0
2019-04-06T01:40:25.717Z,0
2019-04-06T01:41:37.916Z,0
2019-04-06T01:42:50.111Z,0
2019-04-06T01:45:14.518Z,0
2019-04-06T01:46:26.700Z,0
2019-04-06T01:47:38.000Z,0
2019-04-06T01:48:51.105Z,0
2019-04-06T01:50:03.000Z,0
2019-04-06T01:51:15.505Z,0
2019-04-06T01:52:27.000Z,0
2019-04-06T01:53:39.000Z,0
2019-04-06T01:54:52.000Z,0
2019-04-06T01:57:16.487Z,0
2019-04-06T01:58:28.069Z,0
2019-04-06T01:59:40.000Z,0
2019-04-06T02:00:53.009Z,0
2019-04-06T02:02:05.000Z,0
2019-04-06T02:03:17.050Z,0
2019-04-06T02:04:29.702Z,0
2019-04-06T02:05:41.880Z,0
2019-04-06T02:06:54.000Z,0
2019-04-06T02:09:18.000Z,0
2019-04-06T02:10:30.068Z,0
2019-04-06T02:11:42.000Z,0
2019-04-06T02:12:55.081Z,0
2019-04-06T02:14:07.000Z,0
2019-04-06T02:15:19.480Z,0
2019-04-06T02:16:31.000Z,0
2019-04-06T02:17:43.865Z,0
2019-04-06T02:18:56.000Z,0
2019-04-06T02:21:20.000Z,0
2019-04-06T02:22:32.661Z,0
2019-04-06T02:23:44.000Z,0
2019-04-06T02:24:57.000Z,0
2019-04-06T02:26:09.000Z,0
2019-04-06T02:27:21.449Z,0
2019-04-06T02:28:33.000Z,0
2019-04-06T02:29:45.849Z,0
2019-04-06T02:30:58.000Z,0
2019-04-06T02:34:34.643Z,0
2019-04-06T02:35:46.000Z,0
2019-04-06T02:36:59.000Z,0
2019-04-06T02:38:11.000Z,0
2019-04-06T02:39:23.433Z,0
2019-04-06T02:40:35.000Z,0
2019-04-06T02:41:47.854Z,32
2019-04-06T02:45:24.000Z,56
2019-04-06T02:46:36.627Z,56
2019-04-06T02:47:48.000Z,52
2019-04-06T02:49:00.000Z,52
2019-04-06T02:50:13.000Z,52
2019-04-06T02:51:25.427Z,52
2019-04-06T02:52:37.632Z,52
2019-04-06T02:53:49.818Z,56
2019-04-06T02:55:02.000Z,52
2019-04-06T02:57:26.000Z,52
2019-04-06T02:58:38.619Z,52
2019-04-06T02:59:50.000Z,52
2019-04-06T03:01:03.007Z,52
2019-04-06T03:02:15.000Z,52
2019-04-06T03:03:27.411Z,52
2019-04-06T03:04:39.000Z,52
2019-04-06T03:05:51.080Z,52
2019-04-06T03:07:03.000Z,52
2019-04-06T03:09:28.000Z,52
2019-04-06T03:10:40.610Z,52
2019-04-06T03:11:52.000Z,52
2019-04-06T03:13:04.099Z,52
2019-04-06T03:14:17.000Z,52
2019-04-06T03:15:29.398Z,52
2019-04-06T03:16:41.700Z,52
2019-04-06T03:17:53.000Z,52
2019-04-06T03:19:05.000Z,52
2019-04-06T03:21:30.000Z,52
2019-04-06T03:22:42.587Z,52
2019-04-06T03:23:54.000Z,52
2019-04-06T03:25:06.000Z,52
2019-04-06T03:26:19.000Z,52
2019-04-06T03:27:31.374Z,52
2019-04-06T03:28:43.000Z,52
2019-04-06T03:29:55.787Z,52
2019-04-06T03:31:07.009Z,52
2019-04-06T03:33:32.000Z,52
2019-04-06T03:34:44.572Z,52
2019-04-06T03:35:56.000Z,52
2019-04-06T03:37:08.971Z,52
2019-04-06T03:38:21.000Z,52
2019-04-06T03:39:33.368Z,52
2019-04-06T03:40:45.000Z,52
2019-04-06T03:41:57.758Z,52
2019-04-06T03:43:09.000Z,52
2019-04-06T03:45:34.368Z,52
2019-04-06T03:46:46.556Z,52
2019-04-06T03:47:58.000Z,52
2019-04-06T03:49:10.000Z,52
2019-04-06T03:50:23.156Z,52
2019-04-06T03:51:35.348Z,52
2019-04-06T03:52:47.557Z,52
2019-04-06T03:53:59.747Z,52
2019-04-06T03:55:11.000Z,52
2019-04-06T03:57:36.000Z,52
2019-04-06T03:58:48.539Z,52
2019-04-06T04:00:00.000Z,52
2019-04-06T04:02:25.000Z,52
2019-04-06T04:03:37.355Z,52
2019-04-06T04:04:49.000Z,56
2019-04-06T04:06:01.733Z,56
2019-04-06T04:07:13.000Z,60
2019-04-06T04:09:38.000Z,64
2019-04-06T04:10:50.532Z,64
2019-04-06T04:12:02.000Z,72
2019-04-06T04:13:14.926Z,72
2019-04-06T04:14:27.000Z,76
2019-04-06T04:15:39.317Z,84
2019-04-06T04:16:51.000Z,88
2019-04-06T04:18:03.714Z,96
2019-04-06T04:19:15.000Z,104
2019-04-06T04:21:40.000Z,124
2019-04-06T04:22:52.525Z,132
2019-04-06T04:24:04.000Z,144
2019-04-06T04:25:16.915Z,156
2019-04-06T04:26:29.000Z,168
2019-04-06T04:27:41.304Z,180
2019-04-06T04:28:53.000Z,200
2019-04-06T04:30:05.007Z,216
2019-04-06T04:31:17.000Z,236
2019-04-06T04:33:42.000Z,272
2019-04-06T04:34:54.505Z,240
2019-04-06T04:36:06.686Z,264
2019-04-06T04:38:31.009Z,316
2019-04-06T04:39:43.002Z,340
2019-04-06T04:40:55.000Z,372
2019-04-06T04:42:07.687Z,404
2019-04-06T04:43:19.884Z,448
2019-04-06T04:45:44.000Z,560
2019-04-06T04:46:56.486Z,620
2019-04-06T04:48:08.067Z,680
2019-04-06T04:49:20.000Z,740
2019-04-06T04:50:33.149Z,816
2019-04-06T04:51:45.278Z,900
2019-04-06T04:52:57.000Z,996
2019-04-06T04:54:09.680Z,1096
2019-04-06T04:55:21.000Z,1188
2019-04-06T04:57:46.000Z,1384
2019-04-06T04:58:58.046Z,1472
2019-04-06T05:00:10.000Z,1556
2019-04-06T05:01:22.000Z,1640
2019-04-06T05:02:35.000Z,1724
2019-04-06T05:03:47.280Z,1812
2019-04-06T05:04:59.453Z,1916
2019-04-06T05:06:11.664Z,2020
2019-04-06T05:07:23.000Z,2096
2019-04-06T05:09:48.000Z,2212
2019-04-06T05:11:00.044Z,2272
2019-04-06T05:12:12.650Z,2324
2019-04-06T05:13:24.844Z,2360
2019-04-06T05:14:37.000Z,2376
2019-04-06T05:15:49.247Z,2400
2019-04-06T05:17:01.000Z,2412
2019-04-06T05:18:13.640Z,2428
2019-04-06T05:19:25.000Z,2424
2019-04-06T05:21:50.000Z,2532
2019-04-06T05:23:02.474Z,2656
2019-04-06T05:24:14.646Z,2784
2019-04-06T05:25:26.000Z,2880
2019-04-06T05:26:39.000Z,2964
2019-04-06T05:27:51.232Z,3060
2019-04-06T05:29:03.000Z,3128
2019-04-06T05:30:15.625Z,3208
2019-04-06T05:31:27.000Z,3340
2019-04-06T05:33:52.000Z,3752
2019-04-06T05:35:04.420Z,3904
2019-04-06T05:36:16.000Z,4008
2019-04-06T05:37:28.817Z,4092
2019-04-06T05:38:41.000Z,4152
2019-04-06T05:39:53.212Z,4240
2019-04-06T05:41:05.433Z,4324
2019-04-06T05:42:17.615Z,4384
2019-04-06T05:43:29.000Z,4412
2019-04-06T05:44:41.000Z,4436
2019-04-06T05:45:54.000Z,4464
2019-04-06T05:47:06.414Z,4524
2019-04-06T05:48:18.000Z,4664
2019-04-06T05:49:30.000Z,4848
2019-04-06T05:50:42.000Z,5036
2019-04-06T05:51:55.205Z,5204
2019-04-06T05:53:07.451Z,5292
2019-04-06T05:54:19.000Z,5308
2019-04-06T05:55:31.000Z,5268
2019-04-06T05:57:56.000Z,5128
2019-04-06T05:59:08.391Z,5048
2019-04-06T06:00:20.000Z,4972
2019-04-06T06:01:32.000Z,4936
2019-04-06T06:02:44.000Z,4920
2019-04-06T06:03:57.185Z,4932
2019-04-06T06:05:09.000Z,4960
2019-04-06T06:06:21.594Z,4992
2019-04-06T06:07:33.077Z,5036
2019-04-06T06:09:58.000Z,5048
2019-04-06T06:11:10.382Z,4996
2019-04-06T06:12:22.058Z,5076
2019-04-06T06:13:34.000Z,5124
2019-04-06T06:14:46.000Z,5176
2019-04-06T06:15:59.170Z,5256
2019-04-06T06:17:11.000Z,5336
2019-04-06T06:18:23.578Z,5396
2019-04-06T06:19:35.767Z,5444
2019-04-06T06:22:00.000Z,5452
2019-04-06T06:23:12.036Z,5464
2019-04-06T06:24:24.056Z,5488
2019-04-06T06:25:36.765Z,5544
2019-04-06T06:26:48.000Z,5588
2019-04-06T06:28:01.161Z,5632
2019-04-06T06:29:13.356Z,5664
2019-04-06T06:30:25.567Z,5672
2019-04-06T06:31:37.000Z,5676
2019-04-06T06:32:49.960Z,5680
2019-04-06T06:34:02.154Z,5680
2019-04-06T06:35:14.352Z,5704
2019-04-06T06:36:26.000Z,5744
2019-04-06T06:37:38.075Z,5792
2019-04-06T06:38:50.000Z,5876
2019-04-06T06:40:03.146Z,5904
2019-04-06T06:41:15.000Z,5932
2019-04-06T06:42:27.000Z,5952
2019-04-06T06:43:39.000Z,5952
2019-04-06T06:46:04.140Z,5972
2019-04-06T06:47:16.334Z,6004
2019-04-06T06:48:28.000Z,6040
2019-04-06T06:49:40.000Z,6076
2019-04-06T06:50:52.000Z,6112
2019-04-06T06:52:05.125Z,6156
2019-04-06T06:53:17.000Z,6188
2019-04-06T06:54:29.540Z,6200
2019-04-06T06:55:41.000Z,6256
2019-04-06T06:58:06.000Z,6228
2019-04-06T06:59:18.337Z,6328
2019-04-06T07:00:30.000Z,5872
2019-04-06T07:01:42.710Z,6216
2019-04-06T07:02:54.000Z,6320
2019-04-06T07:04:07.112Z,6296
2019-04-06T07:05:19.000Z,6012
2019-04-06T07:06:31.060Z,6060
2019-04-06T07:07:43.000Z,6292
2019-04-06T07:10:08.000Z,6684
2019-04-06T07:11:20.307Z,6664
2019-04-06T07:12:32.000Z,6672
2019-04-06T07:13:44.704Z,6712
2019-04-06T07:14:56.000Z,6712
2019-04-06T07:16:09.094Z,6452
2019-04-06T07:17:21.304Z,6736
2019-04-06T07:18:33.509Z,6832
2019-04-06T07:19:45.000Z,6832
2019-04-06T07:22:10.000Z,6848
2019-04-06T07:23:22.287Z,6888
2019-04-06T07:24:34.000Z,6960
2019-04-06T07:25:46.000Z,6992
2019-04-06T07:26:58.880Z,7064
2019-04-06T07:28:11.084Z,7124
2019-04-06T07:29:23.274Z,7208
2019-04-06T07:30:35.000Z,7256
2019-04-06T07:31:47.672Z,7300
2019-04-06T07:34:12.000Z,7392
2019-04-06T07:35:24.268Z,7420
2019-04-06T07:37:48.669Z,7568
2019-04-06T07:39:00.000Z,7672
2019-04-06T07:40:13.007Z,7784
2019-04-06T07:41:25.272Z,7848
2019-04-06T07:42:37.461Z,7868
2019-04-06T07:43:49.000Z,7904
2019-04-06T07:46:14.000Z,7968
2019-04-06T07:47:26.259Z,8004
2019-04-06T07:48:38.000Z,8036
2019-04-06T07:49:50.663Z,8080
2019-04-06T07:51:02.850Z,8148
2019-04-06T07:52:15.064Z,8212
2019-04-06T07:53:27.271Z,8296
2019-04-06T07:54:39.479Z,8364
2019-04-06T07:55:51.000Z,8472
2019-04-06T07:57:03.000Z,8576
2019-04-06T07:58:16.000Z,8648
2019-04-06T07:59:28.243Z,8716
2019-04-06T08:00:40.000Z,8808
2019-04-06T08:01:52.640Z,8916
2019-04-06T08:03:04.000Z,9048
2019-04-06T08:04:17.036Z,9120
2019-04-06T08:05:29.000Z,9140
2019-04-06T08:06:41.043Z,9172
2019-04-06T08:07:53.000Z,9184
2019-04-06T08:09:05.843Z,9256
2019-04-06T08:10:18.000Z,9412
2019-04-06T08:11:30.230Z,9588
2019-04-06T08:12:42.000Z,9796
2019-04-06T08:13:54.626Z,9976
2019-04-06T08:15:06.826Z,10096
2019-04-06T08:16:19.023Z,10112
2019-04-06T08:17:31.000Z,10168
2019-04-06T08:18:43.416Z,10156
2019-04-06T08:19:55.000Z,10128
2019-04-06T08:22:20.010Z,10096
2019-04-06T08:23:32.207Z,10060
2019-04-06T08:24:44.409Z,10060
2019-04-06T08:25:56.606Z,10016
2019-04-06T08:27:08.000Z,9948
2019-04-06T08:28:21.007Z,9888
2019-04-06T08:29:33.000Z,9808
2019-04-06T08:30:45.000Z,9788
2019-04-06T08:31:57.606Z,9780
2019-04-06T08:34:22.057Z,9968
2019-04-06T08:35:34.198Z,10080
2019-04-06T08:36:46.390Z,10172
2019-04-06T08:37:58.597Z,10288
2019-04-06T08:39:10.000Z,10416
2019-04-06T08:40:22.990Z,10468
2019-04-06T08:41:35.000Z,10544
2019-04-06T08:42:47.395Z,10588
2019-04-06T08:43:59.582Z,10552
2019-04-06T08:45:11.000Z,10528
2019-04-06T08:46:23.000Z,10524
2019-04-06T08:47:36.179Z,10492
2019-04-06T08:48:48.000Z,10496
2019-04-06T08:50:00.000Z,10548
2019-04-06T08:51:12.797Z,10536
2019-04-06T08:52:24.980Z,10456
2019-04-06T08:53:37.000Z,10360
2019-04-06T08:54:49.000Z,10316
2019-04-06T08:56:01.000Z,10260
2019-04-06T08:58:25.972Z,10228
2019-04-06T08:59:38.016Z,10240
2019-04-06T09:00:50.000Z,10228
2019-04-06T09:02:02.570Z,10196
2019-04-06T09:03:14.764Z,10180
2019-04-06T09:04:26.960Z,10164
2019-04-06T09:05:39.000Z,10160
2019-04-06T09:06:51.372Z,10152
2019-04-06T09:08:03.000Z,10104
2019-04-06T09:10:27.000Z,10084
2019-04-06T09:11:40.153Z,10052
2019-04-06T09:12:52.000Z,10080
2019-04-06T09:14:04.000Z,10096
2019-04-06T09:15:16.000Z,10052
2019-04-06T09:16:28.961Z,10052
2019-04-06T09:17:41.000Z,9968
2019-04-06T09:18:53.361Z,9848
2019-04-06T09:20:05.000Z,9724
2019-04-06T09:22:29.000Z,9496
2019-04-06T09:23:42.169Z,9344
2019-04-06T09:24:54.000Z,9196
2019-04-06T09:26:06.055Z,9052
2019-04-06T09:27:18.000Z,8964
2019-04-06T09:28:30.953Z,8884
2019-04-06T09:29:43.000Z,8764
2019-04-06T09:32:07.000Z,8568
2019-04-06T09:33:19.000Z,8476
2019-04-06T09:34:31.000Z,8356
2019-04-06T09:35:44.161Z,8240
2019-04-06T09:36:56.351Z,8164
2019-04-06T09:38:08.552Z,8104
2019-04-06T09:39:20.000Z,8028
2019-04-06T09:40:32.946Z,7980
2019-04-06T09:42:57.416Z,7892
2019-04-06T09:44:09.000Z,7880
2019-04-06T09:45:21.000Z,7832
2019-04-06T09:46:33.000Z,7784
2019-04-06T09:47:46.231Z,7764
2019-04-06T09:48:58.000Z,7732
2019-04-06T09:50:10.000Z,7696
2019-04-06T09:51:22.000Z,7708
2019-04-06T09:52:34.095Z,7684
2019-04-06T09:53:47.000Z,7716
2019-04-06T09:54:59.035Z,7680
2019-04-06T09:56:11.000Z,7648
2019-04-06T09:57:23.000Z,7644
2019-04-06T09:58:35.000Z,7672
2019-04-06T09:59:48.151Z,7684
2019-04-06T10:01:00.035Z,7684
2019-04-06T10:02:12.553Z,7672
2019-04-06T10:03:24.000Z,7668
2019-04-06T10:04:36.096Z,7660
2019-04-06T10:05:49.000Z,7640
2019-04-06T10:07:01.367Z,7604
2019-04-06T10:10:37.000Z,7476
2019-04-06T10:11:50.171Z,7436
2019-04-06T10:13:02.000Z,7412
2019-04-06T10:14:14.000Z,7408
2019-04-06T10:15:26.758Z,7408
2019-04-06T10:16:38.949Z,7448
2019-04-06T10:17:51.000Z,7436
2019-04-06T10:19:03.356Z,7452
2019-04-06T10:20:15.558Z,7368
2019-04-06T10:22:39.949Z,7356
2019-04-06T10:23:52.156Z,7340
2019-04-06T10:25:04.000Z,7356
2019-04-06T10:26:16.557Z,7352
2019-04-06T10:27:28.000Z,7336
2019-04-06T10:28:40.961Z,7304
2019-04-06T10:29:53.162Z,7288
2019-04-06T10:31:05.000Z,7280
2019-04-06T10:32:17.057Z,7312
2019-04-06T10:34:42.337Z,7340
2019-04-06T10:35:54.181Z,7336
2019-04-06T10:37:06.000Z,7336
2019-04-06T10:38:18.000Z,7364
2019-04-06T10:39:30.754Z,7340
2019-04-06T10:40:42.000Z,7344
2019-04-06T10:41:55.151Z,7308
2019-04-06T10:43:07.359Z,7284
2019-04-06T10:44:19.555Z,7292
2019-04-06T10:46:43.965Z,7276
2019-04-06T10:47:56.165Z,7276
2019-04-06T10:49:08.000Z,7280
2019-04-06T10:50:20.000Z,7300
2019-04-06T10:51:32.856Z,7336
2019-04-06T10:52:44.958Z,7360
2019-04-06T10:53:57.000Z,7332
2019-04-06T10:55:09.000Z,7360
2019-04-06T10:56:21.000Z,7384
2019-04-06T10:58:45.000Z,7392
2019-04-06T10:59:58.157Z,7332
2019-04-06T11:01:10.000Z,7332
2019-04-06T11:02:22.570Z,7368
2019-04-06T11:03:34.000Z,7408
2019-04-06T11:04:46.962Z,7408
2019-04-06T11:05:59.000Z,7436
2019-04-06T11:07:11.360Z,7512
2019-04-06T11:08:23.000Z,7444
2019-04-06T11:09:35.000Z,7392
2019-04-06T11:10:47.000Z,7340
2019-04-06T11:12:00.166Z,7404
2019-04-06T11:13:12.000Z,7368
2019-04-06T11:14:24.000Z,7304
2019-04-06T11:15:36.775Z,7364
2019-04-06T11:16:48.991Z,7384
2019-04-06T11:18:01.000Z,7424
2019-04-06T11:19:13.368Z,7412
2019-04-06T11:20:25.000Z,7384
2019-04-06T11:22:49.964Z,7388
2019-04-06T11:24:02.157Z,7364
2019-04-06T11:25:14.000Z,7392
2019-04-06T11:26:26.564Z,7440
2019-04-06T11:27:38.759Z,7496
2019-04-06T11:28:50.968Z,7440
2019-04-06T11:30:03.272Z,7416
2019-04-06T11:31:15.365Z,7388
2019-04-06T11:32:27.000Z,7396
2019-04-06T11:34:51.966Z,7436
2019-04-06T11:36:04.016Z,7460
2019-04-06T11:37:16.386Z,7520
2019-04-06T11:38:28.562Z,7500
2019-04-06T11:39:40.000Z,7388
2019-04-06T11:40:52.000Z,7440
2019-04-06T11:42:05.000Z,7488
2019-04-06T11:43:17.000Z,7464
2019-04-06T11:44:29.000Z,7528
2019-04-06T11:45:41.784Z,7532
2019-04-06T11:46:53.000Z,7556
2019-04-06T11:48:06.164Z,7520
2019-04-06T11:49:18.000Z,7528
2019-04-06T11:50:30.000Z,7500
2019-04-06T11:51:42.076Z,7476
2019-04-06T11:52:54.979Z,7428
2019-04-06T11:54:07.000Z,7412
2019-04-06T11:55:19.371Z,7416
2019-04-06T11:56:31.000Z,7528
2019-04-06T11:58:55.000Z,7648
2019-04-06T12:00:08.172Z,7640
2019-04-06T12:01:20.000Z,7516
2019-04-06T12:03:44.772Z,7448
2019-04-06T12:04:56.972Z,7536
2019-04-06T12:06:09.000Z,7560
2019-04-06T12:07:21.366Z,7504
2019-04-06T12:08:33.000Z,7520
2019-04-06T12:10:57.000Z,7532
2019-04-06T12:12:10.175Z,7664
2019-04-06T12:13:22.000Z,7588
2019-04-06T12:14:34.577Z,7672
2019-04-06T12:15:46.000Z,7676
2019-04-06T12:16:58.989Z,7632
2019-04-06T12:18:11.000Z,7544
2019-04-06T12:19:23.380Z,7512
2019-04-06T12:20:35.000Z,7556
2019-04-06T12:22:59.000Z,7528
2019-04-06T12:24:12.174Z,7580
2019-04-06T12:25:24.000Z,7684
2019-04-06T12:26:36.000Z,7608
2019-04-06T12:27:48.786Z,7548
2019-04-06T12:29:00.977Z,7576
2019-04-06T12:30:13.000Z,7616
2019-04-06T12:31:25.385Z,7552
2019-04-06T12:32:37.587Z,7580
2019-04-06T12:33:49.000Z,7572
2019-04-06T12:35:01.988Z,7536
2019-04-06T12:36:14.017Z,7528
2019-04-06T12:37:26.385Z,7568
2019-04-06T12:38:38.579Z,7560
2019-04-06T12:39:50.000Z,7516
2019-04-06T12:41:02.980Z,7588
2019-04-06T12:42:15.000Z,7788
2019-04-06T12:43:27.384Z,7716
2019-04-06T12:44:39.000Z,7860
2019-04-06T12:47:03.000Z,7792
2019-04-06T12:48:16.181Z,7984
2019-04-06T12:49:28.000Z,8124
2019-04-06T12:50:40.000Z,8176
2019-04-06T12:53:04.997Z,8316
2019-04-06T12:54:17.183Z,8368
2019-04-06T12:55:29.000Z,8404
2019-04-06T12:56:41.610Z,8404
2019-04-06T12:59:05.000Z,8552
2019-04-06T13:00:18.186Z,8700
2019-04-06T13:01:30.000Z,8880
2019-04-06T13:02:42.591Z,9112
2019-04-06T13:03:54.000Z,9020
2019-04-06T13:05:06.989Z,8988
2019-04-06T13:06:19.000Z,8924
2019-04-06T13:07:31.039Z,8992
2019-04-06T13:08:43.000Z,9264
2019-04-06T13:11:08.092Z,9244
2019-04-06T13:12:20.200Z,9268
2019-04-06T13:13:32.000Z,9344
2019-04-06T13:14:44.000Z,9388
2019-04-06T13:15:56.079Z,9328
2019-04-06T13:17:08.996Z,9204
2019-04-06T13:18:21.201Z,9148
2019-04-06T13:19:33.405Z,9312
2019-04-06T13:20:45.000Z,9308
2019-04-06T13:21:57.000Z,9180
2019-04-06T13:23:09.996Z,9140
2019-04-06T13:24:22.197Z,9112
2019-04-06T13:25:34.398Z,9272
2019-04-06T13:26:46.600Z,9220
2019-04-06T13:27:58.000Z,9120
2019-04-06T13:29:11.003Z,8936
2019-04-06T13:30:23.202Z,9100
2019-04-06T13:31:35.404Z,9432
2019-04-06T13:32:47.000Z,9608
2019-04-06T13:33:59.825Z,9680
2019-04-06T13:35:11.000Z,9556
2019-04-06T13:36:24.209Z,9624
2019-04-06T13:37:36.404Z,9508
2019-04-06T13:38:48.602Z,9760
2019-04-06T13:40:00.807Z,9768
2019-04-06T13:41:13.013Z,9632
2019-04-06T13:42:25.209Z,9440
2019-04-06T13:43:37.412Z,9272
2019-04-06T13:44:49.000Z,9132
2019-04-06T13:47:14.018Z,9144
2019-04-06T13:48:26.211Z,9052
2019-04-06T13:49:38.416Z,9068
2019-04-06T13:50:50.000Z,9112
2019-04-06T13:52:02.817Z,9016
2019-04-06T13:53:15.019Z,8984
2019-04-06T13:54:27.000Z,8908
2019-04-06T13:55:39.417Z,8808
2019-04-06T13:56:51.617Z,8804
2019-04-06T13:59:16.000Z,8720
2019-04-06T14:00:28.219Z,8600
2019-04-06T14:02:52.625Z,8464
2019-04-06T14:04:04.818Z,8508
2019-04-06T14:05:17.000Z,8448
2019-04-06T14:06:29.000Z,8320
2019-04-06T14:07:41.423Z,8236
2019-04-06T14:08:53.000Z,8268
2019-04-06T14:11:18.003Z,8340
2019-04-06T14:12:30.229Z,8260
2019-04-06T14:13:42.000Z,8156
2019-04-06T14:14:54.629Z,7960
2019-04-06T14:16:06.000Z,7816
2019-04-06T14:17:19.000Z,7800
2019-04-06T14:18:31.000Z,7772
2019-04-06T14:19:43.045Z,7664
2019-04-06T14:20:55.000Z,7600
2019-04-06T14:22:07.000Z,7536
2019-04-06T14:23:20.035Z,7540
2019-04-06T14:24:32.326Z,7608
2019-04-06T14:25:44.445Z,7556
2019-04-06T14:26:56.000Z,7520
2019-04-06T14:28:08.000Z,7532
2019-04-06T14:29:21.042Z,7396
2019-04-06T14:30:33.000Z,7136
2019-04-06T14:31:45.443Z,6900
2019-04-06T14:32:57.000Z,6792
2019-04-06T14:35:22.000Z,6700
2019-04-06T14:36:34.238Z,6616
2019-04-06T14:37:46.476Z,6520
2019-04-06T14:38:58.640Z,6444
2019-04-06T14:40:10.000Z,6424
2019-04-06T14:41:23.050Z,6404
2019-04-06T14:42:34.000Z,6384
2019-04-06T14:43:47.458Z,6240
2019-04-06T14:44:59.000Z,6192
2019-04-06T14:47:24.000Z,6168
2019-04-06T14:48:36.257Z,6196
2019-04-06T14:49:48.450Z,6272
2019-04-06T14:50:59.000Z,6280
2019-04-06T14:52:12.863Z,6272
2019-04-06T14:53:25.000Z,6216
2019-04-06T14:54:37.000Z,6236
2019-04-06T14:55:49.452Z,6156
2019-04-06T14:57:01.066Z,6184
2019-04-06T14:58:13.000Z,6144
2019-04-06T14:59:26.000Z,6064
2019-04-06T15:00:38.259Z,6036
2019-04-06T15:01:50.000Z,5988
2019-04-06T15:03:02.656Z,5952
2019-04-06T15:04:14.853Z,5848
2019-04-06T15:05:27.062Z,5744
2019-04-06T15:06:39.000Z,5680
2019-04-06T15:07:51.046Z,5624
2019-04-06T15:09:03.000Z,5608
2019-04-06T15:10:15.000Z,5584
2019-04-06T15:11:28.000Z,5540
2019-04-06T15:12:40.265Z,5520
2019-04-06T15:13:52.000Z,5496
2019-04-06T15:15:04.658Z,5444
2019-04-06T15:16:16.000Z,5396
2019-04-06T15:17:29.075Z,5360
2019-04-06T15:18:41.000Z,5292
2019-04-06T15:19:53.481Z,5216
2019-04-06T15:21:05.000Z,5148
2019-04-06T15:22:17.000Z,5080
2019-04-06T15:23:30.072Z,5060
2019-04-06T15:24:42.269Z,4964
2019-04-06T15:25:54.000Z,4908
2019-04-06T15:27:06.000Z,4916
2019-04-06T15:28:18.000Z,4868
2019-04-06T15:29:31.067Z,4872
2019-04-06T15:30:43.000Z,4876
2019-04-06T15:31:55.470Z,4844
2019-04-06T15:33:07.000Z,4820
2019-04-06T15:35:32.070Z,4748
2019-04-06T15:36:44.531Z,4720
2019-04-06T15:37:56.000Z,4684
2019-04-06T15:40:20.873Z,4724
2019-04-06T15:41:33.117Z,4792
2019-04-06T15:42:45.271Z,4700
2019-04-06T15:43:57.047Z,4676
2019-04-06T15:45:09.000Z,4648
2019-04-06T15:46:21.000Z,4600
2019-04-06T15:47:34.007Z,4556
2019-04-06T15:48:46.274Z,4512
2019-04-06T15:49:58.557Z,4464
2019-04-06T15:51:10.000Z,4460
2019-04-06T15:52:22.000Z,4468
2019-04-06T15:53:35.081Z,4520
2019-04-06T15:54:47.000Z,4408
2019-04-06T15:55:59.478Z,4316
2019-04-06T15:57:11.686Z,4240
2019-04-06T15:59:36.086Z,4136
2019-04-06T16:00:48.027Z,4128
2019-04-06T16:02:00.000Z,4064
2019-04-06T16:03:12.686Z,4040
2019-04-06T16:04:24.880Z,4020
2019-04-06T16:05:37.080Z,3992
2019-04-06T16:08:01.486Z,4024
2019-04-06T16:09:13.000Z,3940
2019-04-06T16:11:38.000Z,3876
2019-04-06T16:12:50.287Z,3852
2019-04-06T16:14:02.000Z,3832
2019-04-06T16:15:14.683Z,3828
2019-04-06T16:16:26.890Z,3828
2019-04-06T16:17:39.089Z,3800
2019-04-06T16:18:51.297Z,3744
2019-04-06T16:20:03.485Z,3720
2019-04-06T16:21:15.000Z,3604
2019-04-06T16:23:40.000Z,3476
2019-04-06T16:24:52.291Z,3440
2019-04-06T16:26:04.494Z,3392
2019-04-06T16:27:16.690Z,3368
2019-04-06T16:28:28.892Z,3332
2019-04-06T16:29:41.090Z,3300
2019-04-06T16:30:53.000Z,3264
2019-04-06T16:32:05.495Z,3220
2019-04-06T16:33:17.000Z,3180
2019-04-06T16:34:29.000Z,3128
2019-04-06T16:35:42.000Z,3060
2019-04-06T16:36:54.302Z,3000
2019-04-06T16:38:06.509Z,2952
2019-04-06T16:39:18.695Z,2916
2019-04-06T16:40:30.896Z,2860
2019-04-06T16:41:43.101Z,2820
2019-04-06T16:42:55.000Z,2776
2019-04-06T16:44:07.507Z,2728
2019-04-06T16:45:19.000Z,2688
2019-04-06T16:47:44.104Z,2588
2019-04-06T16:48:56.303Z,2532
2019-04-06T16:50:08.000Z,2480
2019-04-06T16:51:20.703Z,2428
2019-04-06T16:52:32.905Z,2392
2019-04-06T16:53:45.100Z,2356
2019-04-06T16:54:57.000Z,2312
2019-04-06T16:56:09.505Z,2268
2019-04-06T16:57:21.000Z,2212
2019-04-06T16:59:46.100Z,2100
2019-04-06T17:00:58.310Z,2048
2019-04-06T17:02:10.000Z,1992
2019-04-06T17:03:22.705Z,1940
2019-04-06T17:04:34.000Z,1884
2019-04-06T17:05:47.112Z,1828
2019-04-06T17:06:59.000Z,1780
2019-04-06T17:08:11.507Z,1720
2019-04-06T17:09:23.000Z,1656
2019-04-06T17:11:48.000Z,1532
2019-04-06T17:13:00.312Z,1476
2019-04-06T17:14:12.510Z,1420
2019-04-06T17:15:24.000Z,1360
2019-04-06T17:16:36.000Z,1304
2019-04-06T17:17:49.117Z,1256
2019-04-06T17:19:01.031Z,1208
2019-04-06T17:20:13.516Z,1160
2019-04-06T17:21:25.000Z,1100
2019-04-06T17:22:37.000Z,1048
2019-04-06T17:23:50.000Z,996
2019-04-06T17:25:02.320Z,944
2019-04-06T17:26:14.000Z,892
2019-04-06T17:27:26.721Z,844
2019-04-06T17:28:38.928Z,788
2019-04-06T17:29:51.120Z,736
2019-04-06T17:31:03.032Z,684
2019-04-06T17:32:15.523Z,632
2019-04-06T17:33:27.000Z,580
2019-04-06T17:35:52.000Z,488
2019-04-06T17:37:04.325Z,448
2019-04-06T17:38:16.532Z,408
2019-04-06T17:39:28.000Z,376
2019-04-06T17:40:40.000Z,344
2019-04-06T17:41:53.000Z,316
2019-04-06T17:43:05.329Z,288
2019-04-06T17:44:17.526Z,260
2019-04-06T17:45:29.000Z,236
2019-04-06T17:46:41.000Z,212
2019-04-06T17:47:54.000Z,188
2019-04-06T17:49:06.321Z,172
2019-04-06T17:50:18.527Z,156
2019-04-06T17:51:30.000Z,136
2019-04-06T17:52:42.000Z,124
2019-04-06T17:53:55.132Z,112
2019-04-06T17:55:07.000Z,96
2019-04-06T17:56:19.525Z,84
2019-04-06T17:57:31.729Z,72
2019-04-06T17:59:56.000Z,52